Airfield :







YOU CAN JOIN US ON...

 
LOGIN :

Register | Disclaimer

   EN    FR    IT 

 









Legend :    VFR   Marginal VFR   IFR   Intensive IFR   Very Intensive IFR
Visi :
Ceiling :
>= 8 km
>= 3000ft
5 to 8 km
1000 to 3000 ft
1500m to 5 km
500 to 1000 ft
800 to 1500m
200 to 500 ft
< 800m
< 200 ft
Symbols :   Thunderstorms  Fog  Heavy snow  Heavy precipitations  Wind > 20 kt






- Airport Elevation : 930 ft


KEFK - Newport State

CURRENT METAR :
  • 220055Z AUTO 16007KT 10SM CLR 23/21 A2953 RMK AO2 T02280213

EXPIRED METARs :
  • 220035Z AUTO 17007KT 10SM SCT090 23/22 A2953 RMK AO2 T02290215
  • 212355Z AUTO 15005KT 10SM CLR 24/22 A2953 RMK AO2 T02370222 10321 20237
  • 212335Z AUTO 20008G14KT 10SM CLR 24/22 A2952 RMK AO2 T02390224
  • 212315Z AUTO 20011G16KT 10SM CLR 24/23 A2952 RMK AO2 T02420225
  • 212255Z AUTO 20009G15KT 10SM SCT095 25/22 A2952 RMK AO2 T02450223
  • 212235Z AUTO 19008KT 10SM SCT095 SCT120 25/22 A2953 RMK AO2 T02460216
  • 212215Z AUTO 20011G20KT 10SM SCT039 BKN095 OVC120 25/21 A2954 RMK AO2 T02520206

TAF KEFK
Valid from the 22 at 00:00 until the 23 at 00:00 UTC


212330Z 2200/2224 19005KT P6SM VCSH OVC120
FM220200 19006KT 6SM -SHRA BR OVC080
FM220600 22006KT P6SM VCSH OVC035
FM220800 VRB04KT P6SM VCSH OVC018
FM221800 VRB04KT P6SM VCSH BKN035
FM222200 31007KT P6SM BKN045
KZBW FIR / North America



MET'MAP, your aeronautical weather chart ! - Copyright ORBIFLY December 2007 - Disclaimer

ORBIFLY MET'MAP TEAM :

Programming & Development : Alexandra Zaïnal
Concept & original design : Baudouin d'Aumeries
Assistance for programming : Marc-Olivier Méhu
Technical & hardware support : Manuel Goepfert

Contact : metmap@orbifly.com




SOURCES & CREDITS :

   NOAA